createdAt,value
2022-11-24T00:00:43.192Z,96.30
2022-11-24T00:01:50.111Z,96.30
2022-11-24T00:02:54.017Z,96.30
2022-11-24T00:03:59.526Z,96.30
2022-11-24T00:05:03.180Z,96.30
2022-11-24T00:06:07.959Z,96.30
2022-11-24T00:07:12.374Z,96.30
2022-11-24T00:08:15.268Z,96.30
2022-11-24T00:09:19.166Z,96.30
2022-11-24T00:10:21.858Z,96.30
2022-11-24T00:11:28.327Z,96.30
2022-11-24T00:12:32.753Z,96.30
2022-11-24T00:13:41.788Z,96.30
2022-11-24T00:14:47.095Z,96.30
2022-11-24T00:15:52.240Z,96.30
2022-11-24T00:16:56.543Z,96.30
2022-11-24T00:17:59.540Z,96.30
2022-11-24T00:19:06.243Z,96.30
2022-11-24T00:20:13.018Z,96.30
2022-11-24T00:21:18.681Z,96.30
2022-11-24T00:22:26.892Z,96.30
2022-11-24T00:23:30.803Z,96.30
2022-11-24T00:24:36.390Z,96.30
2022-11-24T00:25:39.064Z,96.30
2022-11-24T00:26:44.083Z,96.30
2022-11-24T00:27:47.963Z,96.30
2022-11-24T00:28:54.934Z,96.30
2022-11-24T00:29:59.907Z,96.30
2022-11-24T00:31:04.864Z,96.30
2022-11-24T00:32:07.496Z,96.30
2022-11-24T00:33:11.074Z,96.30
2022-11-24T00:34:16.327Z,96.30
2022-11-24T00:35:19.051Z,96.30
2022-11-24T00:36:29.474Z,96.30
2022-11-24T00:37:32.067Z,96.30
2022-11-24T00:38:38.277Z,96.30
2022-11-24T00:39:40.803Z,96.30
2022-11-24T00:40:44.821Z,96.30
2022-11-24T00:41:48.299Z,96.30
2022-11-24T00:42:54.986Z,96.30
2022-11-24T00:44:00.272Z,96.30
2022-11-24T00:45:13.260Z,96.30
2022-11-24T00:46:18.519Z,96.30
2022-11-24T00:47:24.581Z,96.30
2022-11-24T00:48:28.392Z,96.30
2022-11-24T00:49:36.303Z,96.30
2022-11-24T00:50:40.207Z,96.30
2022-11-24T00:51:44.086Z,96.30
2022-11-24T00:52:46.736Z,96.30
2022-11-24T00:53:51.163Z,96.30
2022-11-24T00:54:53.813Z,96.30
2022-11-24T00:56:02.450Z,96.30
2022-11-24T00:57:06.207Z,96.30
2022-11-24T00:58:13.090Z,96.30
2022-11-24T00:59:18.701Z,96.30
2022-11-24T01:00:21.780Z,96.30
2022-11-24T01:01:28.580Z,96.30
2022-11-24T01:02:31.230Z,96.30
2022-11-24T01:03:35.968Z,96.30
2022-11-24T01:04:40.891Z,96.30
2022-11-24T01:05:44.642Z,96.30
2022-11-24T01:06:50.302Z,96.30
2022-11-24T01:07:52.977Z,96.30
2022-11-24T01:08:58.608Z,96.30
2022-11-24T01:10:01.275Z,96.30
2022-11-24T01:11:14.731Z,96.30
2022-11-24T01:12:19.764Z,96.30
2022-11-24T01:13:27.269Z,96.30
2022-11-24T01:14:32.154Z,96.30
2022-11-24T01:15:37.171Z,96.30
2022-11-24T01:16:40.057Z,96.30
2022-11-24T01:17:43.729Z,96.30
2022-11-24T01:18:50.450Z,96.30
2022-11-24T01:19:54.140Z,96.30
2022-11-24T01:20:57.182Z,96.30
2022-11-24T01:22:00.970Z,96.30
2022-11-24T01:23:09.389Z,96.30
2022-11-24T01:24:14.060Z,96.30
2022-11-24T01:25:19.235Z,96.30
2022-11-24T01:26:24.359Z,96.30
2022-11-24T01:27:27.234Z,96.30
2022-11-24T01:28:32.368Z,96.30
2022-11-24T01:29:36.398Z,96.30
2022-11-24T01:30:39.365Z,96.30
2022-11-24T01:31:45.135Z,96.30
2022-11-24T01:32:47.802Z,96.30
2022-11-24T01:33:52.124Z,96.30
2022-11-24T01:34:55.008Z,96.30
2022-11-24T01:35:59.522Z,96.30
2022-11-24T01:37:02.124Z,96.30
2022-11-24T01:38:08.338Z,96.30
2022-11-24T01:39:11.294Z,96.30
2022-11-24T01:40:15.209Z,96.30
2022-11-24T01:41:23.396Z,96.30
2022-11-24T01:42:27.236Z,96.30
2022-11-24T01:43:31.808Z,96.30
2022-11-24T01:44:36.088Z,96.30
2022-11-24T01:45:42.071Z,96.30
2022-11-24T01:46:48.671Z,96.30
2022-11-24T01:47:51.717Z,96.30
2022-11-24T01:49:04.308Z,96.30
2022-11-24T01:50:14.287Z,96.30
2022-11-24T01:51:23.806Z,96.30
2022-11-24T01:52:33.242Z,96.30
2022-11-24T01:53:38.425Z,96.30
2022-11-24T01:54:47.967Z,96.30
2022-11-24T01:55:52.976Z,96.30
2022-11-24T01:57:01.640Z,96.30
2022-11-24T01:58:08.160Z,96.30
2022-11-24T01:59:17.166Z,96.30
2022-11-24T02:00:20.241Z,96.30
2022-11-24T02:01:26.780Z,96.30
2022-11-24T02:02:30.645Z,96.30
2022-11-24T02:03:44.853Z,96.30
2022-11-24T02:04:48.887Z,96.30
2022-11-24T02:06:00.329Z,96.30
2022-11-24T02:07:08.612Z,96.30
2022-11-24T02:08:29.179Z,96.30
2022-11-24T02:09:40.616Z,96.30
2022-11-24T02:10:46.703Z,96.30
2022-11-24T02:11:49.460Z,96.30
2022-11-24T02:12:57.035Z,96.30
2022-11-24T02:14:00.088Z,96.30
2022-11-24T02:15:06.066Z,96.30
2022-11-24T02:16:12.408Z,96.30
2022-11-24T02:17:19.185Z,96.30
2022-11-24T02:18:22.313Z,96.30
2022-11-24T02:19:48.072Z,96.30
2022-11-24T02:20:50.855Z,96.30
2022-11-24T02:22:02.169Z,96.30
2022-11-24T02:23:12.991Z,96.30
2022-11-24T02:24:25.332Z,96.30
2022-11-24T02:25:40.956Z,96.30
2022-11-24T02:26:48.335Z,96.30
2022-11-24T02:27:56.798Z,96.30
2022-11-24T02:28:59.759Z,96.30
2022-11-24T02:30:03.909Z,96.30
2022-11-24T02:31:24.206Z,96.30
2022-11-24T02:32:28.970Z,96.30
2022-11-24T02:33:33.040Z,96.30
2022-11-24T02:34:37.284Z,96.30
2022-11-24T02:35:40.456Z,96.30
2022-11-24T02:36:44.083Z,96.30
2022-11-24T02:37:46.754Z,96.30
2022-11-24T02:38:57.995Z,96.30
2022-11-24T02:40:00.782Z,96.30
2022-11-24T02:41:13.179Z,96.30
2022-11-24T02:42:17.367Z,96.30
2022-11-24T02:43:25.969Z,96.30
2022-11-24T02:44:36.798Z,96.30
2022-11-24T02:45:40.483Z,96.30
2022-11-24T02:46:46.825Z,96.30
2022-11-24T02:47:50.739Z,96.30
2022-11-24T02:49:01.382Z,96.30
2022-11-24T02:50:05.640Z,96.30
2022-11-24T02:51:08.481Z,96.30
2022-11-24T02:52:21.518Z,96.30
2022-11-24T02:53:24.204Z,96.30
2022-11-24T02:54:30.342Z,96.30
2022-11-24T02:55:35.511Z,96.30
2022-11-24T02:56:39.344Z,96.30
2022-11-24T02:57:43.370Z,96.30
2022-11-24T02:58:46.987Z,96.30
2022-11-24T02:59:49.694Z,96.30
2022-11-24T03:00:54.414Z,96.30
2022-11-24T03:01:57.301Z,96.30
2022-11-24T03:03:01.079Z,96.30
2022-11-24T03:04:04.060Z,96.30
2022-11-24T03:05:08.469Z,96.30
2022-11-24T03:06:14.173Z,96.30
2022-11-24T03:07:19.657Z,96.30
2022-11-24T03:08:22.415Z,96.30
2022-11-24T03:09:28.708Z,96.30
2022-11-24T03:10:31.406Z,96.30
2022-11-24T03:11:35.595Z,96.30
2022-11-24T03:12:38.182Z,96.30
2022-11-24T03:13:43.212Z,96.30
2022-11-24T03:14:45.716Z,96.30
2022-11-24T03:15:52.715Z,96.30
2022-11-24T03:17:04.316Z,96.30
2022-11-24T03:18:18.879Z,96.30
2022-11-24T03:19:21.595Z,96.30
2022-11-24T03:20:30.284Z,96.30
2022-11-24T03:21:35.785Z,96.30
2022-11-24T03:22:39.923Z,96.30
2022-11-24T03:23:42.579Z,96.30
2022-11-24T03:24:48.901Z,96.30
2022-11-24T03:25:51.566Z,96.30
2022-11-24T03:26:55.497Z,96.30
2022-11-24T03:27:58.369Z,96.30
2022-11-24T03:29:03.482Z,96.30
2022-11-24T03:30:09.197Z,96.30
2022-11-24T03:31:13.582Z,96.30
2022-11-24T03:32:17.712Z,96.30
2022-11-24T03:33:21.415Z,96.30
2022-11-24T03:34:23.999Z,96.30
2022-11-24T03:35:27.777Z,96.30
2022-11-24T03:36:30.487Z,96.30
2022-11-24T03:37:34.080Z,96.30
2022-11-24T03:38:37.253Z,96.30
2022-11-24T03:39:40.930Z,96.30
2022-11-24T03:40:44.498Z,96.30
2022-11-24T03:41:47.274Z,96.30
2022-11-24T03:42:51.125Z,96.30
2022-11-24T03:43:59.620Z,96.30
2022-11-24T03:45:30.006Z,96.30
2022-11-24T03:46:42.708Z,96.30
2022-11-24T03:48:02.505Z,96.30
2022-11-24T03:49:07.083Z,96.30
2022-11-24T03:50:11.382Z,96.30
2022-11-24T03:51:13.988Z,96.30
2022-11-24T03:52:17.541Z,96.30
2022-11-24T03:53:20.219Z,96.30
2022-11-24T03:54:23.810Z,96.30
2022-11-24T03:55:29.557Z,96.30
2022-11-24T03:56:33.264Z,96.30
2022-11-24T03:57:36.123Z,96.30
2022-11-24T03:58:39.866Z,96.30
2022-11-24T03:59:45.048Z,96.30
2022-11-24T04:00:52.959Z,96.30
2022-11-24T04:01:55.672Z,96.30
2022-11-24T04:03:02.033Z,96.30
2022-11-24T04:04:08.980Z,96.30
2022-11-24T04:05:12.867Z,96.30
2022-11-24T04:06:34.288Z,96.30
2022-11-24T04:07:39.911Z,96.30
2022-11-24T04:08:44.021Z,96.30
2022-11-24T04:09:50.582Z,96.30
2022-11-24T04:10:57.571Z,96.30
2022-11-24T04:12:18.704Z,96.30
2022-11-24T04:13:24.144Z,96.30
2022-11-24T04:14:26.826Z,96.30
2022-11-24T04:15:30.574Z,96.30
2022-11-24T04:16:34.673Z,96.30
2022-11-24T04:17:38.299Z,96.30
2022-11-24T04:18:52.802Z,96.30
2022-11-24T04:19:56.690Z,96.30
2022-11-24T04:21:00.080Z,96.30
2022-11-24T04:22:03.719Z,96.30
2022-11-24T04:23:07.478Z,96.30
2022-11-24T04:24:11.080Z,96.30
2022-11-24T04:25:17.652Z,96.30
2022-11-24T04:26:23.692Z,96.30
2022-11-24T04:27:29.296Z,96.30
2022-11-24T04:28:35.419Z,96.30
2022-11-24T04:29:50.135Z,96.30
2022-11-24T04:30:54.762Z,96.30
2022-11-24T04:32:00.418Z,96.30
2022-11-24T04:33:06.469Z,96.30
2022-11-24T04:34:08.937Z,96.30
2022-11-24T04:35:12.718Z,96.30
2022-11-24T04:36:15.195Z,96.30
2022-11-24T04:37:19.045Z,96.30
2022-11-24T04:39:25.613Z,96.30
2022-11-24T04:39:57.061Z,96.30
2022-11-24T04:41:07.465Z,96.30
2022-11-24T04:42:10.495Z,96.30
2022-11-24T04:43:18.684Z,96.30
2022-11-24T04:44:21.432Z,96.30
2022-11-24T04:45:26.065Z,96.30
2022-11-24T04:46:30.548Z,96.30
2022-11-24T04:47:35.959Z,96.30
2022-11-24T04:48:38.731Z,96.30
2022-11-24T04:49:42.317Z,96.30
2022-11-24T04:50:47.239Z,96.30
2022-11-24T04:51:53.392Z,96.30
2022-11-24T04:52:56.329Z,96.30
2022-11-24T04:54:00.145Z,96.30
2022-11-24T04:55:08.822Z,96.30
2022-11-24T04:56:18.263Z,96.30
2022-11-24T04:57:38.940Z,96.30
2022-11-24T04:59:07.972Z,96.30
2022-11-24T05:00:18.346Z,96.30
2022-11-24T05:01:33.859Z,96.30
2022-11-24T05:02:45.420Z,96.30
2022-11-24T05:04:04.917Z,96.30
2022-11-24T05:05:25.894Z,96.30
2022-11-24T05:07:01.341Z,96.30
2022-11-24T05:08:05.609Z,96.30
2022-11-24T05:09:41.753Z,96.30
2022-11-24T05:10:48.837Z,96.30
2022-11-24T05:11:51.701Z,96.30
2022-11-24T05:13:05.442Z,96.30
2022-11-24T05:14:08.012Z,96.30
2022-11-24T05:15:12.538Z,96.30
2022-11-24T05:16:19.400Z,96.30
2022-11-24T05:17:36.807Z,96.30
2022-11-24T05:18:41.274Z,96.30
2022-11-24T05:19:53.317Z,96.30
2022-11-24T05:20:56.378Z,96.30
2022-11-24T05:22:09.783Z,96.30
2022-11-24T05:23:13.719Z,96.30
2022-11-24T05:24:17.465Z,96.30
2022-11-24T05:25:20.099Z,96.30
2022-11-24T05:26:23.627Z,96.30
2022-11-24T05:27:26.308Z,96.30
2022-11-24T05:28:30.702Z,96.30
2022-11-24T05:29:33.286Z,96.30
2022-11-24T05:30:38.434Z,96.30
2022-11-24T05:31:41.218Z,96.30
2022-11-24T05:32:45.269Z,96.30
2022-11-24T05:33:54.609Z,96.30
2022-11-24T05:34:58.392Z,96.30
2022-11-24T05:36:03.020Z,96.30
2022-11-24T05:37:06.977Z,96.30
2022-11-24T05:38:09.638Z,96.30
2022-11-24T05:39:15.732Z,96.30
2022-11-24T05:40:18.604Z,96.30
2022-11-24T05:41:22.295Z,96.30
2022-11-24T05:42:47.231Z,96.30
2022-11-24T05:43:52.431Z,96.30
2022-11-24T05:45:00.966Z,96.30
2022-11-24T05:46:08.002Z,96.30
2022-11-24T05:47:15.542Z,96.30
2022-11-24T05:48:24.188Z,96.30
2022-11-24T05:49:28.204Z,96.30
2022-11-24T05:50:37.028Z,96.30
2022-11-24T05:51:39.606Z,96.30
2022-11-24T05:52:45.921Z,96.30
2022-11-24T05:53:48.537Z,96.30
2022-11-24T05:54:52.399Z,96.30
2022-11-24T05:55:56.191Z,96.30
2022-11-24T05:56:59.181Z,96.30
2022-11-24T05:58:05.017Z,96.30
2022-11-24T05:59:09.997Z,96.30
2022-11-24T06:00:20.349Z,96.30
2022-11-24T06:01:29.381Z,96.30
2022-11-24T06:02:37.066Z,96.30
2022-11-24T06:03:45.645Z,96.30
2022-11-24T06:04:56.199Z,96.30
2022-11-24T06:06:06.283Z,96.30
2022-11-24T06:07:14.949Z,96.30
2022-11-24T06:08:20.743Z,96.30
2022-11-24T06:09:23.464Z,96.30
2022-11-24T06:10:30.218Z,96.30
2022-11-24T06:11:36.192Z,96.30
2022-11-24T06:12:43.000Z,96.30
2022-11-24T06:13:49.073Z,96.30
2022-11-24T06:14:53.080Z,96.30
2022-11-24T06:15:59.054Z,96.30
2022-11-24T06:17:03.662Z,96.30
2022-11-24T06:18:10.938Z,96.30
2022-11-24T06:19:13.956Z,96.30
2022-11-24T06:20:32.433Z,96.30
2022-11-24T06:21:35.728Z,96.30
2022-11-24T06:22:44.541Z,96.30
2022-11-24T06:23:49.936Z,96.30
2022-11-24T06:24:56.903Z,96.30
2022-11-24T06:26:00.996Z,96.30
2022-11-24T06:27:03.673Z,96.30
2022-11-24T06:28:07.819Z,96.30
2022-11-24T06:29:10.761Z,96.30
2022-11-24T06:30:17.719Z,96.30
2022-11-24T06:31:22.522Z,96.30
2022-11-24T06:32:26.440Z,96.30
2022-11-24T06:33:33.021Z,96.30
2022-11-24T06:34:38.778Z,96.30
2022-11-24T06:35:42.835Z,96.30
2022-11-24T06:36:49.021Z,96.30
2022-11-24T06:37:51.968Z,96.30
2022-11-24T06:38:56.308Z,96.30
2022-11-24T06:39:59.192Z,96.30
2022-11-24T06:41:04.501Z,96.30
2022-11-24T06:42:07.062Z,96.30
2022-11-24T06:43:11.097Z,96.30
2022-11-24T06:44:16.512Z,96.30
2022-11-24T06:45:23.701Z,96.30
2022-11-24T06:46:29.222Z,96.30
2022-11-24T06:47:34.656Z,96.30
2022-11-24T06:48:37.334Z,96.30
2022-11-24T06:49:41.963Z,96.30
2022-11-24T06:50:46.183Z,96.30
2022-11-24T06:52:02.564Z,96.30
2022-11-24T06:53:05.509Z,96.30
2022-11-24T06:54:17.585Z,96.30
2022-11-24T06:55:20.242Z,96.30
2022-11-24T06:56:24.304Z,96.30
2022-11-24T06:57:32.567Z,96.30
2022-11-24T06:58:35.532Z,96.30
2022-11-24T06:59:39.106Z,96.30
2022-11-24T07:00:41.979Z,96.30
2022-11-24T07:01:45.893Z,96.30
2022-11-24T07:02:49.573Z,96.30
2022-11-24T07:03:55.219Z,96.30
2022-11-24T07:04:58.228Z,96.30
2022-11-24T07:06:03.068Z,96.30
2022-11-24T07:07:08.034Z,96.30
2022-11-24T07:08:17.555Z,96.30
2022-11-24T07:09:20.734Z,96.30
2022-11-24T07:10:24.551Z,96.30
2022-11-24T07:11:43.505Z,96.30
2022-11-24T07:12:46.323Z,96.30
2022-11-24T07:13:55.073Z,96.30
2022-11-24T07:15:05.998Z,96.30
2022-11-24T07:16:14.499Z,96.30
2022-11-24T07:17:21.370Z,96.30
2022-11-24T07:18:26.497Z,96.30
2022-11-24T07:19:35.761Z,96.30
2022-11-24T07:20:39.441Z,96.30
2022-11-24T07:21:45.922Z,96.30
2022-11-24T07:22:49.608Z,96.30
2022-11-24T07:23:54.167Z,96.30
2022-11-24T07:24:57.931Z,96.30
2022-11-24T07:26:06.671Z,96.30
2022-11-24T07:27:10.589Z,96.30
2022-11-24T07:28:13.310Z,96.30
2022-11-24T07:29:35.378Z,96.30
2022-11-24T07:30:37.998Z,96.30
2022-11-24T07:31:45.066Z,96.30
2022-11-24T07:32:47.757Z,96.30
2022-11-24T07:34:04.617Z,96.30
2022-11-24T07:35:08.502Z,96.30
2022-11-24T07:36:15.408Z,96.30
2022-11-24T07:37:28.109Z,96.30
2022-11-24T07:38:37.516Z,96.30
2022-11-24T07:39:40.143Z,96.30
2022-11-24T07:40:46.111Z,96.30
2022-11-24T07:41:49.051Z,96.30
2022-11-24T07:42:53.085Z,96.30
2022-11-24T07:43:57.460Z,96.30
2022-11-24T07:45:01.334Z,96.30
2022-11-24T07:47:32.897Z,96.30
2022-11-24T07:48:39.402Z,96.30
2022-11-24T07:49:43.259Z,96.30
2022-11-24T07:50:55.545Z,96.30
2022-11-24T07:52:00.887Z,96.30
2022-11-24T07:53:06.351Z,96.30
2022-11-24T07:54:10.474Z,96.30
2022-11-24T07:55:13.287Z,96.30
2022-11-24T07:56:17.074Z,96.30
2022-11-24T07:57:19.957Z,96.30
2022-11-24T07:58:28.905Z,96.30
2022-11-24T07:59:35.757Z,96.30
2022-11-24T08:00:42.829Z,96.30
2022-11-24T08:01:47.491Z,96.30
2022-11-24T08:03:01.707Z,96.30
2022-11-24T08:04:06.434Z,96.30
2022-11-24T08:05:30.973Z,96.30
2022-11-24T08:06:39.705Z,96.30
2022-11-24T08:07:46.059Z,96.30
2022-11-24T08:08:51.329Z,96.30
2022-11-24T08:09:55.280Z,96.30
2022-11-24T08:10:58.492Z,96.30
2022-11-24T08:12:02.707Z,96.30
2022-11-24T08:13:06.685Z,96.30
2022-11-24T08:14:13.844Z,96.30
2022-11-24T08:15:16.524Z,96.30
2022-11-24T08:16:21.681Z,96.30
2022-11-24T08:17:26.149Z,96.30
2022-11-24T08:18:29.863Z,96.30
2022-11-24T08:19:34.925Z,96.30
2022-11-24T08:20:41.959Z,96.30
2022-11-24T08:21:48.857Z,96.30
2022-11-24T08:22:52.205Z,96.30
2022-11-24T08:24:01.658Z,96.30
2022-11-24T08:25:07.516Z,96.30
2022-11-24T08:26:16.330Z,96.30
2022-11-24T08:27:25.545Z,96.30
2022-11-24T08:28:32.914Z,96.30
2022-11-24T08:29:36.840Z,96.30
2022-11-24T08:30:40.436Z,96.30
2022-11-24T08:31:46.602Z,96.30
2022-11-24T08:32:52.274Z,96.30
2022-11-24T08:33:59.161Z,96.30
2022-11-24T08:35:13.514Z,96.30
2022-11-24T08:36:20.338Z,96.30
2022-11-24T08:37:25.507Z,96.30
2022-11-24T08:38:29.740Z,96.30
2022-11-24T08:39:35.649Z,96.30
2022-11-24T08:40:45.579Z,96.30
2022-11-24T08:41:52.008Z,96.30
2022-11-24T08:43:14.332Z,96.30
2022-11-24T08:44:18.496Z,96.30
2022-11-24T08:45:25.636Z,96.30
2022-11-24T08:46:29.558Z,96.30
2022-11-24T08:47:35.941Z,96.30
2022-11-24T08:48:41.825Z,96.30
2022-11-24T08:49:46.876Z,96.30
2022-11-24T08:50:49.933Z,96.30
2022-11-24T08:51:53.722Z,96.30
2022-11-24T08:52:56.498Z,96.30
2022-11-24T08:54:02.886Z,96.30
2022-11-24T08:55:08.183Z,96.30
2022-11-24T08:56:17.127Z,96.30
2022-11-24T08:57:27.477Z,96.30
2022-11-24T08:59:37.443Z,96.30
2022-11-24T09:00:43.973Z,96.30
2022-11-24T09:02:00.502Z,96.30
2022-11-24T09:03:04.071Z,96.30
2022-11-24T09:04:17.163Z,96.30
2022-11-24T09:06:48.095Z,96.30
2022-11-24T09:07:58.141Z,96.30
2022-11-24T09:09:08.436Z,95.90
2022-11-24T09:10:22.857Z,95.60
2022-11-24T09:11:30.864Z,95.50
2022-11-24T09:12:34.824Z,95.50
2022-11-24T09:13:38.203Z,95.40
2022-11-24T09:14:41.832Z,95.50
2022-11-24T09:15:46.863Z,95.10
2022-11-24T09:16:50.863Z,94.80
2022-11-24T09:17:53.643Z,94.50
2022-11-24T09:18:59.356Z,94.00
2022-11-24T09:20:03.188Z,93.70
2022-11-24T09:21:15.573Z,93.30
2022-11-24T09:22:20.554Z,92.50
2022-11-24T09:23:23.282Z,92.70
2022-11-24T09:24:27.247Z,92.30
2022-11-24T09:25:31.607Z,91.80
2022-11-24T09:26:46.100Z,91.90
2022-11-24T09:27:51.770Z,91.30
2022-11-24T09:29:08.355Z,91.10
2022-11-24T09:30:19.024Z,90.80
2022-11-24T09:31:26.713Z,91.10
2022-11-24T09:32:31.292Z,90.20
2022-11-24T09:33:35.716Z,90.30
2022-11-24T09:34:39.445Z,90.30
2022-11-24T09:35:43.321Z,89.70
2022-11-24T09:36:51.716Z,89.50
2022-11-24T09:37:54.493Z,89.60
2022-11-24T09:38:58.364Z,89.10
2022-11-24T09:40:05.744Z,88.80
2022-11-24T09:41:45.329Z,88.90
2022-11-24T09:43:01.986Z,89.00
2022-11-24T09:44:15.320Z,88.20
2022-11-24T09:46:04.991Z,88.70
2022-11-24T09:47:22.275Z,88.60
2022-11-24T09:48:34.712Z,88.90
2022-11-24T09:49:53.469Z,88.10
2022-11-24T09:51:03.413Z,88.10
2022-11-24T09:52:19.837Z,88.20
2022-11-24T09:53:33.570Z,88.60
2022-11-24T09:54:46.712Z,88.60
2022-11-24T09:55:52.948Z,88.90
2022-11-24T09:57:02.075Z,88.50
2022-11-24T09:58:36.916Z,88.40
2022-11-24T09:59:43.161Z,88.10
2022-11-24T10:00:49.928Z,88.00
2022-11-24T10:02:02.929Z,87.80
2022-11-24T10:03:07.189Z,88.30
2022-11-24T10:04:18.953Z,88.50
2022-11-24T10:05:30.484Z,87.90
2022-11-24T10:06:51.937Z,87.90
2022-11-24T10:08:09.821Z,87.10
2022-11-24T10:10:04.616Z,87.60
2022-11-24T10:11:16.511Z,87.80
2022-11-24T10:12:39.848Z,87.30
2022-11-24T10:14:20.627Z,87.20
2022-11-24T10:15:46.124Z,87.30
2022-11-24T10:16:58.759Z,87.80
2022-11-24T10:18:43.507Z,87.30
2022-11-24T10:19:52.586Z,87.30
2022-11-24T10:21:18.683Z,88.00
2022-11-24T10:22:43.592Z,88.40
2022-11-24T10:24:06.798Z,88.30
2022-11-24T10:25:21.701Z,88.30
2022-11-24T10:26:36.152Z,88.80
2022-11-24T10:27:48.157Z,89.50
2022-11-24T10:28:56.190Z,88.50
2022-11-24T10:30:02.203Z,88.80
2022-11-24T10:31:23.859Z,88.20
2022-11-24T10:32:37.565Z,88.80
2022-11-24T10:33:42.179Z,89.60
2022-11-24T10:34:50.762Z,90.10
2022-11-24T10:36:16.614Z,91.00
2022-11-24T10:37:29.671Z,92.50
2022-11-24T10:38:43.507Z,92.90
2022-11-24T10:40:00.655Z,93.70
2022-11-24T10:41:18.168Z,94.20
2022-11-24T10:42:29.873Z,95.60
2022-11-24T10:43:35.132Z,96.30
2022-11-24T10:44:40.169Z,96.30
2022-11-24T10:45:43.987Z,96.30
2022-11-24T10:46:49.519Z,96.30
2022-11-24T10:47:53.756Z,96.30
2022-11-24T10:49:06.102Z,96.30
2022-11-24T10:50:21.698Z,96.30
2022-11-24T10:51:45.520Z,96.30
2022-11-24T10:53:05.732Z,96.30
2022-11-24T10:54:16.410Z,96.30
2022-11-24T10:55:21.720Z,96.30
2022-11-24T10:56:24.752Z,96.30
2022-11-24T10:57:33.824Z,96.30
2022-11-24T10:58:41.709Z,96.30
2022-11-24T10:59:45.665Z,96.30
2022-11-24T11:00:48.377Z,95.20
2022-11-24T11:01:52.870Z,94.10
2022-11-24T11:03:23.860Z,94.10
2022-11-24T11:04:32.951Z,94.70
2022-11-24T11:05:42.988Z,94.30
2022-11-24T11:06:46.930Z,94.10
2022-11-24T11:07:51.045Z,93.90
2022-11-24T11:09:25.556Z,93.10
2022-11-24T11:10:30.934Z,92.90
2022-11-24T11:11:54.635Z,92.30
2022-11-24T11:12:58.516Z,93.00
2022-11-24T11:14:05.801Z,92.40
2022-11-24T11:15:27.148Z,92.40
2022-11-24T11:16:40.326Z,92.70
2022-11-24T11:18:02.141Z,92.50
2022-11-24T11:19:55.476Z,91.60
2022-11-24T11:21:03.488Z,91.60
2022-11-24T11:22:25.062Z,91.30
2022-11-24T11:23:32.699Z,91.20
2022-11-24T11:24:40.160Z,91.10
2022-11-24T11:25:44.049Z,90.80
2022-11-24T11:27:04.139Z,90.80
2022-11-24T11:28:33.231Z,90.90
2022-11-24T11:31:17.888Z,91.10
2022-11-24T11:34:29.792Z,90.90
2022-11-24T11:35:40.044Z,91.10
2022-11-24T11:36:49.119Z,91.20
2022-11-24T11:37:54.848Z,90.90
2022-11-24T11:39:02.597Z,90.80
2022-11-24T11:40:17.135Z,91.10
2022-11-24T11:41:36.228Z,90.90
2022-11-24T11:43:01.797Z,91.40
2022-11-24T11:44:27.574Z,91.50
2022-11-24T11:45:37.643Z,91.20
2022-11-24T11:46:45.459Z,90.00
2022-11-24T11:47:55.269Z,90.20
2022-11-24T11:48:58.783Z,90.40
2022-11-24T11:50:03.187Z,90.40
2022-11-24T11:51:43.266Z,90.10
2022-11-24T11:53:22.840Z,90.90
2022-11-24T11:55:09.749Z,90.90
2022-11-24T11:56:27.502Z,91.80
2022-11-24T11:58:01.893Z,91.70
2022-11-24T11:59:44.745Z,91.70
2022-11-24T12:00:59.888Z,92.00
2022-11-24T12:02:53.305Z,91.70
2022-11-24T12:04:28.579Z,92.00
2022-11-24T12:06:00.590Z,91.40
2022-11-24T12:07:46.279Z,92.30
2022-11-24T12:10:38.951Z,93.00
2022-11-24T12:11:50.739Z,91.80
2022-11-24T12:13:58.080Z,92.30
2022-11-24T12:15:13.247Z,93.00
2022-11-24T12:16:50.826Z,93.40
2022-11-24T12:18:40.358Z,93.20
2022-11-24T12:20:04.527Z,93.60
2022-11-24T12:21:25.927Z,93.70
2022-11-24T12:24:16.905Z,93.40
2022-11-24T12:25:31.771Z,93.30
2022-11-24T12:26:45.582Z,94.00
2022-11-24T12:28:03.327Z,94.70
2022-11-24T12:29:56.448Z,94.50
2022-11-24T12:31:35.571Z,93.80
2022-11-24T12:33:13.423Z,93.40
2022-11-24T12:34:40.112Z,93.60
2022-11-24T12:35:46.999Z,94.30
2022-11-24T12:37:14.263Z,95.00
2022-11-24T12:38:37.067Z,94.70
2022-11-24T12:39:58.371Z,95.40
2022-11-24T12:41:43.338Z,94.80
2022-11-24T12:43:00.364Z,94.00
2022-11-24T12:44:26.022Z,94.90
2022-11-24T12:45:52.602Z,95.10
2022-11-24T12:47:15.318Z,96.00
2022-11-24T12:48:38.712Z,95.60
2022-11-24T12:50:04.935Z,95.90
2022-11-24T12:51:17.698Z,96.30
2022-11-24T12:52:30.358Z,96.00
2022-11-24T12:53:38.711Z,95.50
2022-11-24T12:54:42.143Z,95.70
2022-11-24T12:55:49.307Z,95.70
2022-11-24T12:57:01.991Z,96.30
2022-11-24T12:58:28.896Z,95.70
2022-11-24T12:59:40.997Z,96.30
2022-11-24T13:01:01.128Z,95.80
2022-11-24T13:02:21.580Z,96.30
2022-11-24T13:03:46.760Z,96.30
2022-11-24T13:05:03.785Z,96.30
2022-11-24T13:06:19.167Z,96.30
2022-11-24T13:07:34.829Z,96.30
2022-11-24T13:08:46.104Z,96.30
2022-11-24T13:10:55.266Z,96.30
2022-11-24T13:12:16.664Z,96.30
2022-11-24T13:13:25.025Z,96.30
2022-11-24T13:14:33.793Z,96.30
2022-11-24T13:16:48.500Z,96.30
2022-11-24T13:18:05.491Z,96.30
2022-11-24T13:19:20.930Z,96.30
2022-11-24T13:20:33.392Z,96.30
2022-11-24T13:21:52.149Z,96.30
2022-11-24T13:22:56.930Z,96.30
2022-11-24T13:24:04.956Z,96.30
2022-11-24T13:25:21.601Z,96.30
2022-11-24T13:26:31.360Z,96.30
2022-11-24T13:27:55.706Z,96.30
2022-11-24T13:29:13.365Z,96.30
2022-11-24T13:30:56.262Z,96.30
2022-11-24T13:33:21.660Z,96.30
2022-11-24T13:34:56.333Z,96.30
2022-11-24T13:36:34.810Z,96.30
2022-11-24T13:37:51.819Z,96.30
2022-11-24T13:38:55.526Z,96.30
2022-11-24T13:40:01.367Z,96.30
2022-11-24T13:41:27.778Z,96.30
2022-11-24T13:42:47.812Z,96.30
2022-11-24T13:44:25.156Z,96.30
2022-11-24T13:45:52.437Z,96.30
2022-11-24T13:47:06.177Z,96.30
2022-11-24T13:49:03.392Z,96.30
2022-11-24T13:50:41.815Z,96.30
2022-11-24T13:51:45.888Z,96.30
2022-11-24T13:53:02.010Z,96.30
2022-11-24T13:54:11.610Z,96.30
2022-11-24T13:55:38.864Z,96.30
2022-11-24T13:56:41.809Z,96.30
2022-11-24T13:57:48.400Z,96.30
2022-11-24T13:58:54.958Z,96.30
2022-11-24T14:00:05.267Z,96.30
2022-11-24T14:01:32.735Z,96.30
2022-11-24T14:02:37.332Z,96.30
2022-11-24T14:05:53.728Z,96.30
2022-11-24T14:07:07.405Z,96.30
2022-11-24T14:08:22.751Z,96.30
2022-11-24T14:09:42.545Z,96.30
2022-11-24T14:10:46.121Z,96.30
2022-11-24T14:12:28.939Z,96.30
2022-11-24T14:13:34.800Z,96.30
2022-11-24T14:14:39.017Z,96.30
2022-11-24T14:16:05.598Z,96.30
2022-11-24T14:17:22.963Z,96.30
2022-11-24T14:18:26.406Z,96.30
2022-11-24T14:19:32.394Z,96.30
2022-11-24T14:20:38.898Z,96.30
2022-11-24T14:21:45.363Z,96.30
2022-11-24T14:22:49.614Z,96.30
2022-11-24T14:23:55.653Z,96.30
2022-11-24T14:25:01.677Z,96.30
2022-11-24T14:26:06.887Z,96.30
2022-11-24T14:27:16.732Z,96.30
2022-11-24T14:28:45.833Z,96.30
2022-11-24T14:30:00.744Z,96.30
2022-11-24T14:31:24.405Z,96.30
2022-11-24T14:32:46.425Z,96.30
2022-11-24T14:34:15.744Z,96.30
2022-11-24T14:35:31.890Z,96.30
2022-11-24T14:36:35.625Z,96.30
2022-11-24T14:37:42.022Z,96.30
2022-11-24T14:38:49.727Z,96.30
2022-11-24T14:39:55.251Z,96.30
2022-11-24T14:41:26.283Z,96.30
2022-11-24T14:42:33.481Z,96.30
2022-11-24T14:43:36.543Z,96.30
2022-11-24T14:44:51.286Z,96.30
2022-11-24T14:45:59.133Z,96.30
2022-11-24T14:47:04.799Z,96.30
2022-11-24T14:48:17.827Z,96.30
2022-11-24T14:49:26.558Z,96.30
2022-11-24T14:50:33.676Z,96.30
2022-11-24T14:51:48.501Z,96.30
2022-11-24T14:53:00.087Z,96.30
2022-11-24T14:54:06.556Z,96.30
2022-11-24T14:55:33.408Z,96.30
2022-11-24T14:56:39.473Z,96.30
2022-11-24T14:57:57.834Z,96.30
2022-11-24T14:59:02.317Z,96.30
2022-11-24T15:00:20.776Z,96.30
2022-11-24T15:01:42.408Z,96.30
2022-11-24T15:02:49.691Z,96.30
2022-11-24T15:05:03.997Z,96.30
2022-11-24T15:06:30.725Z,96.30
2022-11-24T15:07:37.387Z,96.30
2022-11-24T15:08:50.754Z,96.30
2022-11-24T15:10:00.082Z,96.30
2022-11-24T15:11:08.848Z,96.30
2022-11-24T15:12:30.903Z,96.30
2022-11-24T15:13:55.348Z,96.30
2022-11-24T15:15:05.295Z,96.30
2022-11-24T15:16:21.110Z,96.30
2022-11-24T15:17:27.733Z,96.30